ENKR/KKN METAR and TAF weather

Enter ICAO airport designator
Station Type Date Time Source
ENKR METAR 2019/02/23 17:20 UTC NOAA

ENKR 231720Z AUTO 26017KT 9999 -RA BKN016/// OVC024/// 03/01 Q1008 RMK WIND 731FT 26028KT


Station Type Date Time Source
ENKR Decoded METAR 2019/02/23 17:20 UTC NOAA

Kirkenes Lufthavn, Norway (ENKR) 69-44N 029-54E 91M
Feb 23, 2019 - 12:20 PM EST / 2019.02.23 1720 UTC
Wind: from the W (260 degrees) at 20 MPH (17 KT):0
Visibility: greater than 7 mile(s):0
Sky conditions: overcast
Weather: light rain
Temperature: 37 F (3 C)
Dew Point: 33 F (1 C)
Relative Humidity: 86%
Pressure (altimeter): 29.77 in. Hg (1008 hPa)
ob: ENKR 231720Z AUTO 26017KT 9999 -RA BKN016/// OVC024/// 03/01 Q1008 RMK WIND 731FT 26028KT
cycle: 17

Station Type Date Time Source
ENKR TAF 2017/08/31 21:36 UTC NOAA

TAF TAF ENKR 312300Z 3121/0109 29005KT 9999 FEW020 SCT040


Example: see airport list